sensor_id;sensor_type;location;lat;lon;timestamp;temperature;humidity
57434;DHT22;43277;52.672;6.984;2024-02-21T00:02:09;9.50;99.90
57434;DHT22;43277;52.672;6.984;2024-02-21T00:04:34;9.50;99.90
57434;DHT22;43277;52.672;6.984;2024-02-21T00:07:01;9.50;99.90
57434;DHT22;43277;52.672;6.984;2024-02-21T00:09:27;9.40;99.90
57434;DHT22;43277;52.672;6.984;2024-02-21T00:11:53;9.40;99.90
57434;DHT22;43277;52.672;6.984;2024-02-21T00:14:19;9.40;99.90
57434;DHT22;43277;52.672;6.984;2024-02-21T00:16:44;9.40;99.90
57434;DHT22;43277;52.672;6.984;2024-02-21T00:19:10;9.50;99.90
57434;DHT22;43277;52.672;6.984;2024-02-21T00:21:35;9.40;99.90
57434;DHT22;43277;52.672;6.984;2024-02-21T00:24:01;9.30;99.90
57434;DHT22;43277;52.672;6.984;2024-02-21T00:26:26;9.30;99.90
57434;DHT22;43277;52.672;6.984;2024-02-21T00:28:52;9.40;99.90
57434;DHT22;43277;52.672;6.984;2024-02-21T00:31:18;9.40;99.90
57434;DHT22;43277;52.672;6.984;2024-02-21T00:33:43;9.40;99.90
57434;DHT22;43277;52.672;6.984;2024-02-21T00:36:09;9.40;99.90
57434;DHT22;43277;52.672;6.984;2024-02-21T00:38:35;9.40;99.90
57434;DHT22;43277;52.672;6.984;2024-02-21T00:41:00;9.30;99.90
57434;DHT22;43277;52.672;6.984;2024-02-21T00:43:26;9.40;99.90
57434;DHT22;43277;52.672;6.984;2024-02-21T00:45:51;9.40;99.90
57434;DHT22;43277;52.672;6.984;2024-02-21T00:48:17;9.50;99.90
57434;DHT22;43277;52.672;6.984;2024-02-21T00:50:43;9.50;99.90
57434;DHT22;43277;52.672;6.984;2024-02-21T00:53:08;9.50;99.90
57434;DHT22;43277;52.672;6.984;2024-02-21T00:55:35;9.40;99.90
57434;DHT22;43277;52.672;6.984;2024-02-21T00:58:01;9.40;99.90
57434;DHT22;43277;52.672;6.984;2024-02-21T01:00:26;9.40;99.90
57434;DHT22;43277;52.672;6.984;2024-02-21T01:02:52;9.30;99.90
57434;DHT22;43277;52.672;6.984;2024-02-21T01:05:18;9.40;99.90
57434;DHT22;43277;52.672;6.984;2024-02-21T01:07:44;9.50;99.90
57434;DHT22;43277;52.672;6.984;2024-02-21T01:10:10;9.50;99.90
57434;DHT22;43277;52.672;6.984;2024-02-21T01:12:36;9.50;99.90
57434;DHT22;43277;52.672;6.984;2024-02-21T01:15:02;9.50;99.90
57434;DHT22;43277;52.672;6.984;2024-02-21T01:17:28;9.40;99.90
57434;DHT22;43277;52.672;6.984;2024-02-21T01:19:53;9.50;99.90
57434;DHT22;43277;52.672;6.984;2024-02-21T01:22:19;9.40;99.90
57434;DHT22;43277;52.672;6.984;2024-02-21T01:24:44;9.40;99.90
57434;DHT22;43277;52.672;6.984;2024-02-21T01:27:10;9.60;99.90
57434;DHT22;43277;52.672;6.984;2024-02-21T01:29:36;9.50;99.90
57434;DHT22;43277;52.672;6.984;2024-02-21T01:32:01;9.50;99.90
57434;DHT22;43277;52.672;6.984;2024-02-21T01:34:27;9.50;99.90
57434;DHT22;43277;52.672;6.984;2024-02-21T01:36:52;9.50;99.90
57434;DHT22;43277;52.672;6.984;2024-02-21T01:39:18;9.50;99.90
57434;DHT22;43277;52.672;6.984;2024-02-21T01:41:44;9.50;99.90
57434;DHT22;43277;52.672;6.984;2024-02-21T01:44:09;9.40;99.90
57434;DHT22;43277;52.672;6.984;2024-02-21T01:46:35;9.40;99.90
57434;DHT22;43277;52.672;6.984;2024-02-21T01:49:00;9.50;99.90
57434;DHT22;43277;52.672;6.984;2024-02-21T01:51:26;9.50;99.90
57434;DHT22;43277;52.672;6.984;2024-02-21T01:53:53;9.60;99.90
57434;DHT22;43277;52.672;6.984;2024-02-21T01:56:20;9.60;99.90
57434;DHT22;43277;52.672;6.984;2024-02-21T01:58:48;9.50;99.90
57434;DHT22;43277;52.672;6.984;2024-02-21T02:01:14;9.60;99.90
57434;DHT22;43277;52.672;6.984;2024-02-21T02:03:40;9.60;99.90
57434;DHT22;43277;52.672;6.984;2024-02-21T02:06:06;9.60;99.90
57434;DHT22;43277;52.672;6.984;2024-02-21T02:08:34;9.50;99.90
57434;DHT22;43277;52.672;6.984;2024-02-21T02:11:00;9.50;99.90
57434;DHT22;43277;52.672;6.984;2024-02-21T02:13:26;9.50;99.90
57434;DHT22;43277;52.672;6.984;2024-02-21T02:15:52;9.50;99.90
57434;DHT22;43277;52.672;6.984;2024-02-21T02:18:19;9.60;99.90
57434;DHT22;43277;52.672;6.984;2024-02-21T02:20:45;9.60;99.90
57434;DHT22;43277;52.672;6.984;2024-02-21T02:23:28;9.60;99.90
57434;DHT22;43277;52.672;6.984;2024-02-21T02:25:58;9.50;99.90
57434;DHT22;43277;52.672;6.984;2024-02-21T02:28:26;9.40;99.90
57434;DHT22;43277;52.672;6.984;2024-02-21T02:30:52;9.50;99.90
57434;DHT22;43277;52.672;6.984;2024-02-21T02:33:18;9.60;99.90
57434;DHT22;43277;52.672;6.984;2024-02-21T02:35:44;9.50;99.90
57434;DHT22;43277;52.672;6.984;2024-02-21T02:38:10;9.50;99.90
57434;DHT22;43277;52.672;6.984;2024-02-21T02:40:38;9.40;99.90
57434;DHT22;43277;52.672;6.984;2024-02-21T02:43:04;9.50;99.90
57434;DHT22;43277;52.672;6.984;2024-02-21T02:45:30;9.50;99.90
57434;DHT22;43277;52.672;6.984;2024-02-21T02:47:57;9.50;99.90
57434;DHT22;43277;52.672;6.984;2024-02-21T02:50:27;9.50;99.90
57434;DHT22;43277;52.672;6.984;2024-02-21T02:52:53;9.50;99.90
57434;DHT22;43277;52.672;6.984;2024-02-21T02:55:19;9.50;99.90
57434;DHT22;43277;52.672;6.984;2024-02-21T02:57:45;9.40;99.90
57434;DHT22;43277;52.672;6.984;2024-02-21T03:00:12;9.30;99.90
57434;DHT22;43277;52.672;6.984;2024-02-21T03:02:39;9.20;99.90
57434;DHT22;43277;52.672;6.984;2024-02-21T03:05:14;9.30;99.90
57434;DHT22;43277;52.672;6.984;2024-02-21T03:07:40;9.30;99.90
57434;DHT22;43277;52.672;6.984;2024-02-21T03:10:06;9.20;99.90
57434;DHT22;43277;52.672;6.984;2024-02-21T03:12:32;9.20;99.90
57434;DHT22;43277;52.672;6.984;2024-02-21T03:14:57;9.20;99.90
57434;DHT22;43277;52.672;6.984;2024-02-21T03:17:23;9.30;99.90
57434;DHT22;43277;52.672;6.984;2024-02-21T03:19:51;9.20;99.90
57434;DHT22;43277;52.672;6.984;2024-02-21T03:22:18;9.20;99.90
57434;DHT22;43277;52.672;6.984;2024-02-21T03:24:44;9.20;99.90
57434;DHT22;43277;52.672;6.984;2024-02-21T03:27:09;9.20;99.90
57434;DHT22;43277;52.672;6.984;2024-02-21T03:29:35;9.20;99.90
57434;DHT22;43277;52.672;6.984;2024-02-21T03:32:00;9.20;99.90
57434;DHT22;43277;52.672;6.984;2024-02-21T03:34:26;9.20;99.90
57434;DHT22;43277;52.672;6.984;2024-02-21T03:36:51;9.20;99.90
57434;DHT22;43277;52.672;6.984;2024-02-21T03:39:17;9.20;99.90
57434;DHT22;43277;52.672;6.984;2024-02-21T03:41:43;9.10;99.90
57434;DHT22;43277;52.672;6.984;2024-02-21T03:44:09;9.00;99.90
57434;DHT22;43277;52.672;6.984;2024-02-21T03:46:34;9.10;99.90
57434;DHT22;43277;52.672;6.984;2024-02-21T03:49:00;9.00;99.90
57434;DHT22;43277;52.672;6.984;2024-02-21T03:51:26;9.00;99.90
57434;DHT22;43277;52.672;6.984;2024-02-21T03:53:51;9.10;99.90
57434;DHT22;43277;52.672;6.984;2024-02-21T03:56:17;9.00;99.90
57434;DHT22;43277;52.672;6.984;2024-02-21T03:58:43;9.00;99.90
57434;DHT22;43277;52.672;6.984;2024-02-21T04:01:08;9.10;99.90
57434;DHT22;43277;52.672;6.984;2024-02-21T04:03:34;9.10;99.90
57434;DHT22;43277;52.672;6.984;2024-02-21T04:06:00;9.00;99.90
57434;DHT22;43277;52.672;6.984;2024-02-21T04:08:25;9.00;99.90
57434;DHT22;43277;52.672;6.984;2024-02-21T04:10:51;9.00;99.90
57434;DHT22;43277;52.672;6.984;2024-02-21T04:13:17;9.20;99.90
57434;DHT22;43277;52.672;6.984;2024-02-21T04:15:42;9.10;99.90
57434;DHT22;43277;52.672;6.984;2024-02-21T04:18:08;9.10;99.90
57434;DHT22;43277;52.672;6.984;2024-02-21T04:20:34;9.10;99.90
57434;DHT22;43277;52.672;6.984;2024-02-21T04:23:00;9.10;99.90
57434;DHT22;43277;52.672;6.984;2024-02-21T04:25:25;9.00;99.90
57434;DHT22;43277;52.672;6.984;2024-02-21T04:27:51;9.00;99.90
57434;DHT22;43277;52.672;6.984;2024-02-21T04:30:17;9.00;99.90
57434;DHT22;43277;52.672;6.984;2024-02-21T04:32:43;9.10;99.90
57434;DHT22;43277;52.672;6.984;2024-02-21T04:35:09;9.10;99.90
57434;DHT22;43277;52.672;6.984;2024-02-21T04:37:34;9.10;99.90
57434;DHT22;43277;52.672;6.984;2024-02-21T04:40:00;9.10;99.90
57434;DHT22;43277;52.672;6.984;2024-02-21T04:42:25;9.10;99.90
57434;DHT22;43277;52.672;6.984;2024-02-21T04:44:51;9.10;99.90
57434;DHT22;43277;52.672;6.984;2024-02-21T04:47:17;9.20;99.90
57434;DHT22;43277;52.672;6.984;2024-02-21T04:49:42;9.20;99.90
57434;DHT22;43277;52.672;6.984;2024-02-21T04:52:08;9.20;99.90
57434;DHT22;43277;52.672;6.984;2024-02-21T04:54:34;9.20;99.90
57434;DHT22;43277;52.672;6.984;2024-02-21T04:57:03;9.20;99.90
57434;DHT22;43277;52.672;6.984;2024-02-21T04:59:28;9.20;99.90
57434;DHT22;43277;52.672;6.984;2024-02-21T05:01:55;9.10;99.90
57434;DHT22;43277;52.672;6.984;2024-02-21T05:04:20;9.20;99.90
57434;DHT22;43277;52.672;6.984;2024-02-21T05:06:46;9.20;99.90
57434;DHT22;43277;52.672;6.984;2024-02-21T05:09:12;9.20;99.90
57434;DHT22;43277;52.672;6.984;2024-02-21T05:11:38;9.20;99.90
57434;DHT22;43277;52.672;6.984;2024-02-21T05:14:04;9.20;99.90
57434;DHT22;43277;52.672;6.984;2024-02-21T05:16:31;9.20;99.90
57434;DHT22;43277;52.672;6.984;2024-02-21T05:18:56;9.10;99.90
57434;DHT22;43277;52.672;6.984;2024-02-21T05:21:25;9.20;99.90
57434;DHT22;43277;52.672;6.984;2024-02-21T05:23:52;9.20;99.90
57434;DHT22;43277;52.672;6.984;2024-02-21T05:26:21;9.30;99.90
57434;DHT22;43277;52.672;6.984;2024-02-21T05:28:48;9.20;99.90
57434;DHT22;43277;52.672;6.984;2024-02-21T05:31:14;9.20;99.90
57434;DHT22;43277;52.672;6.984;2024-02-21T05:33:40;9.10;99.90
57434;DHT22;43277;52.672;6.984;2024-02-21T05:36:05;9.20;99.90
57434;DHT22;43277;52.672;6.984;2024-02-21T05:38:31;9.20;99.90
57434;DHT22;43277;52.672;6.984;2024-02-21T05:40:57;9.30;99.90
57434;DHT22;43277;52.672;6.984;2024-02-21T05:43:23;9.30;99.90
57434;DHT22;43277;52.672;6.984;2024-02-21T05:45:48;9.30;99.90
57434;DHT22;43277;52.672;6.984;2024-02-21T05:48:14;9.30;99.90
57434;DHT22;43277;52.672;6.984;2024-02-21T05:50:40;9.10;99.90
57434;DHT22;43277;52.672;6.984;2024-02-21T05:53:05;9.20;99.90
57434;DHT22;43277;52.672;6.984;2024-02-21T05:55:31;9.10;99.90
57434;DHT22;43277;52.672;6.984;2024-02-21T05:57:57;9.10;99.90
57434;DHT22;43277;52.672;6.984;2024-02-21T06:00:22;9.10;99.90
57434;DHT22;43277;52.672;6.984;2024-02-21T06:02:48;9.10;99.90
57434;DHT22;43277;52.672;6.984;2024-02-21T06:05:13;9.20;99.90
57434;DHT22;43277;52.672;6.984;2024-02-21T06:07:39;9.40;99.90
57434;DHT22;43277;52.672;6.984;2024-02-21T06:10:06;9.40;99.90
57434;DHT22;43277;52.672;6.984;2024-02-21T06:12:32;9.30;99.90
57434;DHT22;43277;52.672;6.984;2024-02-21T06:14:58;9.20;99.90
57434;DHT22;43277;52.672;6.984;2024-02-21T06:17:23;9.30;99.90
57434;DHT22;43277;52.672;6.984;2024-02-21T06:19:49;9.10;99.90
57434;DHT22;43277;52.672;6.984;2024-02-21T06:22:14;9.20;99.90
57434;DHT22;43277;52.672;6.984;2024-02-21T06:24:40;9.20;99.90
57434;DHT22;43277;52.672;6.984;2024-02-21T06:27:06;9.20;99.90
57434;DHT22;43277;52.672;6.984;2024-02-21T06:29:32;9.30;99.90
57434;DHT22;43277;52.672;6.984;2024-02-21T06:31:59;9.30;99.90
57434;DHT22;43277;52.672;6.984;2024-02-21T06:34:25;9.30;99.90
57434;DHT22;43277;52.672;6.984;2024-02-21T06:36:51;9.20;99.90
57434;DHT22;43277;52.672;6.984;2024-02-21T06:39:16;9.30;99.90
57434;DHT22;43277;52.672;6.984;2024-02-21T06:41:42;9.30;99.90
57434;DHT22;43277;52.672;6.984;2024-02-21T06:44:08;9.30;99.90
57434;DHT22;43277;52.672;6.984;2024-02-21T06:46:33;9.20;99.90
57434;DHT22;43277;52.672;6.984;2024-02-21T06:49:00;9.10;99.90
57434;DHT22;43277;52.672;6.984;2024-02-21T06:51:26;9.20;99.90
57434;DHT22;43277;52.672;6.984;2024-02-21T06:53:52;9.20;99.90
57434;DHT22;43277;52.672;6.984;2024-02-21T06:56:18;9.30;99.90
57434;DHT22;43277;52.672;6.984;2024-02-21T06:58:43;9.20;99.90
57434;DHT22;43277;52.672;6.984;2024-02-21T07:01:09;9.20;99.90
57434;DHT22;43277;52.672;6.984;2024-02-21T07:03:35;9.20;99.90
57434;DHT22;43277;52.672;6.984;2024-02-21T07:06:01;9.20;99.90
57434;DHT22;43277;52.672;6.984;2024-02-21T07:08:27;9.30;99.90
57434;DHT22;43277;52.672;6.984;2024-02-21T07:10:53;9.20;99.90
57434;DHT22;43277;52.672;6.984;2024-02-21T07:13:19;9.10;99.90
57434;DHT22;43277;52.672;6.984;2024-02-21T07:15:44;9.20;99.90
57434;DHT22;43277;52.672;6.984;2024-02-21T07:18:10;9.20;99.90
57434;DHT22;43277;52.672;6.984;2024-02-21T07:20:35;9.20;99.90
57434;DHT22;43277;52.672;6.984;2024-02-21T07:23:04;9.20;99.90
57434;DHT22;43277;52.672;6.984;2024-02-21T07:25:29;9.20;99.90
57434;DHT22;43277;52.672;6.984;2024-02-21T07:27:55;9.10;99.90
57434;DHT22;43277;52.672;6.984;2024-02-21T07:30:21;9.10;99.90
57434;DHT22;43277;52.672;6.984;2024-02-21T07:32:49;9.10;99.90
57434;DHT22;43277;52.672;6.984;2024-02-21T07:35:15;9.10;99.90
57434;DHT22;43277;52.672;6.984;2024-02-21T07:37:41;9.20;99.90
57434;DHT22;43277;52.672;6.984;2024-02-21T07:40:11;9.20;99.90
57434;DHT22;43277;52.672;6.984;2024-02-21T07:42:37;9.20;99.90
57434;DHT22;43277;52.672;6.984;2024-02-21T07:45:03;9.20;99.90
57434;DHT22;43277;52.672;6.984;2024-02-21T07:47:29;9.20;99.90
57434;DHT22;43277;52.672;6.984;2024-02-21T07:49:54;9.20;99.90
57434;DHT22;43277;52.672;6.984;2024-02-21T07:52:20;9.20;99.90
57434;DHT22;43277;52.672;6.984;2024-02-21T07:54:45;9.20;99.90
57434;DHT22;43277;52.672;6.984;2024-02-21T07:57:11;9.20;99.90
57434;DHT22;43277;52.672;6.984;2024-02-21T07:59:37;9.40;99.90
57434;DHT22;43277;52.672;6.984;2024-02-21T08:02:02;9.30;99.90
57434;DHT22;43277;52.672;6.984;2024-02-21T08:04:32;9.20;99.90
57434;DHT22;43277;52.672;6.984;2024-02-21T08:06:57;9.20;99.90
57434;DHT22;43277;52.672;6.984;2024-02-21T08:09:28;9.20;99.90
57434;DHT22;43277;52.672;6.984;2024-02-21T08:11:57;9.30;99.90
57434;DHT22;43277;52.672;6.984;2024-02-21T08:14:23;9.30;99.90
57434;DHT22;43277;52.672;6.984;2024-02-21T08:16:50;9.20;99.90
57434;DHT22;43277;52.672;6.984;2024-02-21T08:19:16;9.30;99.90
57434;DHT22;43277;52.672;6.984;2024-02-21T08:21:42;9.20;99.90
57434;DHT22;43277;52.672;6.984;2024-02-21T08:24:07;9.30;99.90
57434;DHT22;43277;52.672;6.984;2024-02-21T08:26:33;9.10;99.90
57434;DHT22;43277;52.672;6.984;2024-02-21T08:28:59;9.10;99.90
57434;DHT22;43277;52.672;6.984;2024-02-21T08:31:26;9.10;99.90
57434;DHT22;43277;52.672;6.984;2024-02-21T08:33:58;9.20;99.90
57434;DHT22;43277;52.672;6.984;2024-02-21T08:36:30;9.20;99.90
57434;DHT22;43277;52.672;6.984;2024-02-21T08:38:56;9.20;99.90
57434;DHT22;43277;52.672;6.984;2024-02-21T08:41:23;9.20;99.90
57434;DHT22;43277;52.672;6.984;2024-02-21T08:43:53;9.30;99.90
57434;DHT22;43277;52.672;6.984;2024-02-21T08:46:23;9.30;99.90
57434;DHT22;43277;52.672;6.984;2024-02-21T08:48:50;9.40;99.90
57434;DHT22;43277;52.672;6.984;2024-02-21T08:51:16;9.40;99.90
57434;DHT22;43277;52.672;6.984;2024-02-21T08:53:42;9.40;99.90
57434;DHT22;43277;52.672;6.984;2024-02-21T08:56:07;9.40;99.90
57434;DHT22;43277;52.672;6.984;2024-02-21T08:58:34;9.40;99.90
57434;DHT22;43277;52.672;6.984;2024-02-21T09:01:00;9.40;99.90
57434;DHT22;43277;52.672;6.984;2024-02-21T09:03:26;9.50;99.90
57434;DHT22;43277;52.672;6.984;2024-02-21T09:05:52;9.50;99.90
57434;DHT22;43277;52.672;6.984;2024-02-21T09:08:17;9.50;99.90
57434;DHT22;43277;52.672;6.984;2024-02-21T09:10:43;9.60;99.90
57434;DHT22;43277;52.672;6.984;2024-02-21T09:13:09;9.60;99.90
57434;DHT22;43277;52.672;6.984;2024-02-21T09:15:35;9.60;99.90
57434;DHT22;43277;52.672;6.984;2024-02-21T09:18:00;9.60;99.90
57434;DHT22;43277;52.672;6.984;2024-02-21T09:20:26;9.60;99.90
57434;DHT22;43277;52.672;6.984;2024-02-21T09:22:51;9.70;99.90
57434;DHT22;43277;52.672;6.984;2024-02-21T09:25:18;9.70;99.90
57434;DHT22;43277;52.672;6.984;2024-02-21T09:27:45;9.70;99.90
57434;DHT22;43277;52.672;6.984;2024-02-21T09:30:11;9.70;99.90
57434;DHT22;43277;52.672;6.984;2024-02-21T09:32:37;9.80;99.90
57434;DHT22;43277;52.672;6.984;2024-02-21T09:35:04;9.80;99.90
57434;DHT22;43277;52.672;6.984;2024-02-21T09:37:31;9.80;99.90
57434;DHT22;43277;52.672;6.984;2024-02-21T09:39:57;9.80;99.90
57434;DHT22;43277;52.672;6.984;2024-02-21T09:42:27;9.80;99.90
57434;DHT22;43277;52.672;6.984;2024-02-21T09:44:56;9.80;99.90
57434;DHT22;43277;52.672;6.984;2024-02-21T09:47:34;9.80;99.90
57434;DHT22;43277;52.672;6.984;2024-02-21T09:50:05;9.70;99.90
57434;DHT22;43277;52.672;6.984;2024-02-21T09:52:32;9.80;99.90
57434;DHT22;43277;52.672;6.984;2024-02-21T09:55:01;9.80;99.90
57434;DHT22;43277;52.672;6.984;2024-02-21T09:57:27;9.90;99.90
57434;DHT22;43277;52.672;6.984;2024-02-21T09:59:55;9.80;99.90
57434;DHT22;43277;52.672;6.984;2024-02-21T10:02:22;9.80;99.90
57434;DHT22;43277;52.672;6.984;2024-02-21T10:04:47;9.80;99.90
57434;DHT22;43277;52.672;6.984;2024-02-21T10:07:13;9.90;99.90
57434;DHT22;43277;52.672;6.984;2024-02-21T10:09:38;10.00;99.90
57434;DHT22;43277;52.672;6.984;2024-02-21T10:12:09;10.00;99.90
57434;DHT22;43277;52.672;6.984;2024-02-21T10:14:36;9.90;99.90
57434;DHT22;43277;52.672;6.984;2024-02-21T10:17:01;10.00;99.90
57434;DHT22;43277;52.672;6.984;2024-02-21T10:19:28;10.00;99.90
57434;DHT22;43277;52.672;6.984;2024-02-21T10:24:30;10.10;99.90
57434;DHT22;43277;52.672;6.984;2024-02-21T10:27:01;10.10;99.90
57434;DHT22;43277;52.672;6.984;2024-02-21T10:29:31;10.10;99.90
57434;DHT22;43277;52.672;6.984;2024-02-21T10:32:10;10.10;99.90
57434;DHT22;43277;52.672;6.984;2024-02-21T10:34:38;10.20;99.90
57434;DHT22;43277;52.672;6.984;2024-02-21T10:37:05;10.20;99.90
57434;DHT22;43277;52.672;6.984;2024-02-21T10:39:32;10.20;99.90
57434;DHT22;43277;52.672;6.984;2024-02-21T10:42:00;10.10;99.90
57434;DHT22;43277;52.672;6.984;2024-02-21T10:44:28;10.20;99.90
57434;DHT22;43277;52.672;6.984;2024-02-21T10:46:55;10.30;99.90
57434;DHT22;43277;52.672;6.984;2024-02-21T10:49:26;10.40;99.90
57434;DHT22;43277;52.672;6.984;2024-02-21T10:52:10;10.40;99.90
57434;DHT22;43277;52.672;6.984;2024-02-21T10:54:51;10.50;99.90
57434;DHT22;43277;52.672;6.984;2024-02-21T10:57:19;10.50;99.90
57434;DHT22;43277;52.672;6.984;2024-02-21T10:59:48;10.50;99.90
57434;DHT22;43277;52.672;6.984;2024-02-21T11:02:15;10.60;99.90
57434;DHT22;43277;52.672;6.984;2024-02-21T11:04:41;10.60;99.90
57434;DHT22;43277;52.672;6.984;2024-02-21T11:07:07;10.70;99.90
57434;DHT22;43277;52.672;6.984;2024-02-21T11:09:34;10.70;99.90
57434;DHT22;43277;52.672;6.984;2024-02-21T11:12:06;10.70;99.90
57434;DHT22;43277;52.672;6.984;2024-02-21T11:14:32;10.60;99.90
57434;DHT22;43277;52.672;6.984;2024-02-21T11:16:58;10.70;99.90
57434;DHT22;43277;52.672;6.984;2024-02-21T11:19:28;10.40;99.90
57434;DHT22;43277;52.672;6.984;2024-02-21T11:21:55;10.50;99.90
57434;DHT22;43277;52.672;6.984;2024-02-21T11:24:32;10.50;99.90
57434;DHT22;43277;52.672;6.984;2024-02-21T11:27:15;10.50;99.90
57434;DHT22;43277;52.672;6.984;2024-02-21T11:32:15;10.60;99.90
57434;DHT22;43277;52.672;6.984;2024-02-21T11:34:41;10.50;99.90
57434;DHT22;43277;52.672;6.984;2024-02-21T11:37:17;10.50;99.90
57434;DHT22;43277;52.672;6.984;2024-02-21T11:39:43;10.60;99.90
57434;DHT22;43277;52.672;6.984;2024-02-21T11:42:09;10.60;99.90
57434;DHT22;43277;52.672;6.984;2024-02-21T11:44:35;10.70;99.90
57434;DHT22;43277;52.672;6.984;2024-02-21T11:47:04;10.60;99.90
57434;DHT22;43277;52.672;6.984;2024-02-21T11:49:30;10.70;99.90
57434;DHT22;43277;52.672;6.984;2024-02-21T11:52:03;10.70;99.90
57434;DHT22;43277;52.672;6.984;2024-02-21T11:54:33;10.80;99.90
57434;DHT22;43277;52.672;6.984;2024-02-21T11:56:59;10.70;99.90
57434;DHT22;43277;52.672;6.984;2024-02-21T11:59:26;10.70;99.90
57434;DHT22;43277;52.672;6.984;2024-02-21T12:01:52;10.80;99.90
57434;DHT22;43277;52.672;6.984;2024-02-21T12:04:19;10.80;99.90
57434;DHT22;43277;52.672;6.984;2024-02-21T12:06:49;10.80;99.90
57434;DHT22;43277;52.672;6.984;2024-02-21T12:09:15;10.80;99.90
57434;DHT22;43277;52.672;6.984;2024-02-21T12:11:41;10.70;99.90
57434;DHT22;43277;52.672;6.984;2024-02-21T12:14:07;10.80;99.90
57434;DHT22;43277;52.672;6.984;2024-02-21T12:16:34;10.80;99.90
57434;DHT22;43277;52.672;6.984;2024-02-21T12:19:03;10.70;99.90
57434;DHT22;43277;52.672;6.984;2024-02-21T12:21:32;10.70;99.90
57434;DHT22;43277;52.672;6.984;2024-02-21T12:24:00;10.60;99.90
57434;DHT22;43277;52.672;6.984;2024-02-21T12:26:25;10.60;99.90
57434;DHT22;43277;52.672;6.984;2024-02-21T12:28:53;10.60;99.90
57434;DHT22;43277;52.672;6.984;2024-02-21T12:31:18;10.60;99.90
57434;DHT22;43277;52.672;6.984;2024-02-21T12:33:44;10.60;99.90
57434;DHT22;43277;52.672;6.984;2024-02-21T12:36:09;10.70;99.90
57434;DHT22;43277;52.672;6.984;2024-02-21T12:38:36;10.70;99.90
57434;DHT22;43277;52.672;6.984;2024-02-21T12:41:02;10.80;99.90
57434;DHT22;43277;52.672;6.984;2024-02-21T12:43:28;10.70;99.90
57434;DHT22;43277;52.672;6.984;2024-02-21T12:45:54;10.60;99.90
57434;DHT22;43277;52.672;6.984;2024-02-21T12:48:20;10.80;99.90
57434;DHT22;43277;52.672;6.984;2024-02-21T12:50:49;10.80;99.90
57434;DHT22;43277;52.672;6.984;2024-02-21T12:53:19;10.80;99.90
57434;DHT22;43277;52.672;6.984;2024-02-21T12:55:47;10.70;99.90
57434;DHT22;43277;52.672;6.984;2024-02-21T12:58:14;10.60;99.90
57434;DHT22;43277;52.672;6.984;2024-02-21T13:00:40;10.60;99.90
57434;DHT22;43277;52.672;6.984;2024-02-21T13:03:06;10.50;99.90
57434;DHT22;43277;52.672;6.984;2024-02-21T13:05:31;10.50;99.90
57434;DHT22;43277;52.672;6.984;2024-02-21T13:08:00;10.40;99.90
57434;DHT22;43277;52.672;6.984;2024-02-21T13:10:26;10.40;99.90
57434;DHT22;43277;52.672;6.984;2024-02-21T13:12:51;10.40;99.90
57434;DHT22;43277;52.672;6.984;2024-02-21T13:15:17;10.40;99.90
57434;DHT22;43277;52.672;6.984;2024-02-21T13:17:46;10.30;99.90
57434;DHT22;43277;52.672;6.984;2024-02-21T13:20:12;10.30;99.90
57434;DHT22;43277;52.672;6.984;2024-02-21T13:22:37;10.30;99.90
57434;DHT22;43277;52.672;6.984;2024-02-21T13:25:04;10.40;99.90
57434;DHT22;43277;52.672;6.984;2024-02-21T13:27:33;10.30;99.90
57434;DHT22;43277;52.672;6.984;2024-02-21T13:29:58;10.30;99.90
57434;DHT22;43277;52.672;6.984;2024-02-21T13:32:25;10.20;99.90
57434;DHT22;43277;52.672;6.984;2024-02-21T13:34:51;10.30;99.90
57434;DHT22;43277;52.672;6.984;2024-02-21T13:37:18;10.30;99.90
57434;DHT22;43277;52.672;6.984;2024-02-21T13:39:43;10.40;99.90
57434;DHT22;43277;52.672;6.984;2024-02-21T13:42:09;10.40;99.90
57434;DHT22;43277;52.672;6.984;2024-02-21T13:44:34;10.30;99.90
57434;DHT22;43277;52.672;6.984;2024-02-21T13:47:01;10.30;99.90
57434;DHT22;43277;52.672;6.984;2024-02-21T13:49:26;10.40;99.90
57434;DHT22;43277;52.672;6.984;2024-02-21T13:51:52;10.50;99.90
57434;DHT22;43277;52.672;6.984;2024-02-21T13:54:18;10.60;99.90
57434;DHT22;43277;52.672;6.984;2024-02-21T13:56:45;10.50;99.90
57434;DHT22;43277;52.672;6.984;2024-02-21T13:59:12;10.60;99.90
57434;DHT22;43277;52.672;6.984;2024-02-21T14:01:39;10.70;99.90
57434;DHT22;43277;52.672;6.984;2024-02-21T14:04:04;10.80;99.90
57434;DHT22;43277;52.672;6.984;2024-02-21T14:06:30;10.70;99.90
57434;DHT22;43277;52.672;6.984;2024-02-21T14:08:56;10.70;99.90
57434;DHT22;43277;52.672;6.984;2024-02-21T14:11:22;10.70;99.90
57434;DHT22;43277;52.672;6.984;2024-02-21T14:13:48;10.70;99.90
57434;DHT22;43277;52.672;6.984;2024-02-21T14:16:14;10.80;99.90
57434;DHT22;43277;52.672;6.984;2024-02-21T14:18:40;10.70;99.90
57434;DHT22;43277;52.672;6.984;2024-02-21T14:21:13;10.70;99.90
57434;DHT22;43277;52.672;6.984;2024-02-21T14:23:39;10.70;99.90
57434;DHT22;43277;52.672;6.984;2024-02-21T14:26:05;10.60;99.90
57434;DHT22;43277;52.672;6.984;2024-02-21T14:28:32;10.70;99.90
57434;DHT22;43277;52.672;6.984;2024-02-21T14:30:59;10.70;99.90
57434;DHT22;43277;52.672;6.984;2024-02-21T14:33:26;10.60;99.90
57434;DHT22;43277;52.672;6.984;2024-02-21T14:35:52;10.50;99.90
57434;DHT22;43277;52.672;6.984;2024-02-21T14:38:21;10.50;99.90
57434;DHT22;43277;52.672;6.984;2024-02-21T14:40:46;10.40;99.90
57434;DHT22;43277;52.672;6.984;2024-02-21T14:43:12;10.50;99.90
57434;DHT22;43277;52.672;6.984;2024-02-21T14:45:37;10.50;99.90
57434;DHT22;43277;52.672;6.984;2024-02-21T14:48:04;10.60;99.90
57434;DHT22;43277;52.672;6.984;2024-02-21T14:50:30;10.50;99.90
57434;DHT22;43277;52.672;6.984;2024-02-21T14:52:56;10.50;99.90
57434;DHT22;43277;52.672;6.984;2024-02-21T14:55:21;10.60;99.90
57434;DHT22;43277;52.672;6.984;2024-02-21T14:57:51;10.50;99.90
57434;DHT22;43277;52.672;6.984;2024-02-21T15:00:16;10.40;99.90
57434;DHT22;43277;52.672;6.984;2024-02-21T15:02:42;10.40;99.90
57434;DHT22;43277;52.672;6.984;2024-02-21T15:05:10;10.40;99.90
57434;DHT22;43277;52.672;6.984;2024-02-21T15:07:38;10.30;99.90
57434;DHT22;43277;52.672;6.984;2024-02-21T15:10:04;10.30;99.90
57434;DHT22;43277;52.672;6.984;2024-02-21T15:12:29;10.30;99.90
57434;DHT22;43277;52.672;6.984;2024-02-21T15:14:56;10.30;99.90
57434;DHT22;43277;52.672;6.984;2024-02-21T15:17:22;10.30;99.90
57434;DHT22;43277;52.672;6.984;2024-02-21T15:19:48;10.30;99.90
57434;DHT22;43277;52.672;6.984;2024-02-21T15:22:14;10.30;99.90
57434;DHT22;43277;52.672;6.984;2024-02-21T15:24:40;10.30;99.90
57434;DHT22;43277;52.672;6.984;2024-02-21T15:27:06;10.30;99.90
57434;DHT22;43277;52.672;6.984;2024-02-21T15:29:32;10.20;99.90
57434;DHT22;43277;52.672;6.984;2024-02-21T15:31:57;10.20;99.90
57434;DHT22;43277;52.672;6.984;2024-02-21T15:34:23;10.30;99.90
57434;DHT22;43277;52.672;6.984;2024-02-21T15:36:49;10.40;99.90
57434;DHT22;43277;52.672;6.984;2024-02-21T15:39:14;10.40;99.90
57434;DHT22;43277;52.672;6.984;2024-02-21T15:41:40;10.30;99.90